createdAt,value
2017-10-31T00:01:49.275Z,101766.94
2017-10-31T00:04:16.836Z,101764.83
2017-10-31T00:06:44.376Z,101765.25
2017-10-31T00:09:11.856Z,101761.98
2017-10-31T00:11:39.587Z,101756.02
2017-10-31T00:14:07.072Z,101752.73
2017-10-31T00:16:34.634Z,101762.08
2017-10-31T00:19:02.175Z,101758.11
2017-10-31T00:21:29.659Z,101758.38
2017-10-31T00:23:57.132Z,101761.23
2017-10-31T00:26:24.738Z,101762.07
2017-10-31T00:28:52.233Z,101751.89
2017-10-31T00:31:19.711Z,101751.98
2017-10-31T00:33:47.347Z,101746.86
2017-10-31T00:36:14.876Z,101741.06
2017-10-31T00:38:42.416Z,101752.48
2017-10-31T00:41:10.102Z,101754.52
2017-10-31T00:43:37.589Z,101753.44
2017-10-31T00:46:05.072Z,101758.80
2017-10-31T00:48:32.587Z,101758.54
2017-10-31T00:51:00.073Z,101753.26
2017-10-31T00:53:27.597Z,101756.27
2017-10-31T00:55:55.148Z,101758.39
2017-10-31T00:58:22.628Z,101758.14
2017-10-31T01:00:50.138Z,101753.01
2017-10-31T01:03:17.724Z,101751.33
2017-10-31T01:05:45.207Z,101755.10
2017-10-31T01:08:12.727Z,101748.39
2017-10-31T01:10:40.221Z,101752.81
2017-10-31T01:13:07.701Z,101759.37
2017-10-31T01:15:35.235Z,101753.10
2017-10-31T01:18:02.715Z,101755.59
2017-10-31T01:20:30.198Z,101754.34
2017-10-31T01:22:57.779Z,101757.94
2017-10-31T01:25:25.268Z,101753.33
2017-10-31T01:27:52.772Z,101760.47
2017-10-31T01:30:20.365Z,101758.05
2017-10-31T01:32:47.857Z,101758.36
2017-10-31T01:35:15.381Z,101749.63
2017-10-31T01:37:42.892Z,101754.94
2017-10-31T01:40:10.371Z,101748.79
2017-10-31T01:42:37.899Z,101754.33
2017-10-31T01:45:05.378Z,101755.93
2017-10-31T01:47:32.859Z,101752.56
2017-10-31T01:50:00.393Z,101752.22
2017-10-31T01:52:27.874Z,101746.10
2017-10-31T01:54:55.440Z,101759.30
2017-10-31T01:57:22.961Z,101755.67
2017-10-31T01:59:50.444Z,101748.70
2017-10-31T02:02:17.939Z,101752.37
2017-10-31T02:04:45.452Z,101754.07
2017-10-31T02:07:12.939Z,101755.67
2017-10-31T02:09:40.487Z,101745.08
2017-10-31T02:12:08.016Z,101743.38
2017-10-31T02:14:35.500Z,101735.31
2017-10-31T02:17:03.077Z,101734.23
2017-10-31T02:19:30.613Z,101735.64
2017-10-31T02:21:58.096Z,101737.59
2017-10-31T02:24:25.589Z,101737.69
2017-10-31T02:26:53.200Z,101735.25
2017-10-31T02:29:20.740Z,101733.05
2017-10-31T02:31:48.224Z,101739.19
2017-10-31T02:34:15.729Z,101733.66
2017-10-31T02:36:43.234Z,101735.25
2017-10-31T02:39:19.615Z,101735.89
2017-10-31T02:41:47.096Z,101737.34
2017-10-31T02:44:14.620Z,101738.14
2017-10-31T02:46:42.104Z,101740.67
2017-10-31T02:49:09.587Z,101739.67
2017-10-31T02:51:37.111Z,101735.73
2017-10-31T02:54:04.589Z,101739.93
2017-10-31T02:56:32.108Z,101738.68
2017-10-31T02:58:59.609Z,101734.23
2017-10-31T03:01:27.222Z,101735.80
2017-10-31T03:03:54.705Z,101734.91
2017-10-31T03:06:22.195Z,101737.50
2017-10-31T03:08:49.725Z,101735.80
2017-10-31T03:11:17.205Z,101733.20
2017-10-31T03:13:44.685Z,101737.56
2017-10-31T03:16:12.273Z,101734.35
2017-10-31T03:18:39.855Z,101739.48
2017-10-31T03:21:07.348Z,101742.65
2017-10-31T03:23:34.961Z,101745.27
2017-10-31T03:26:02.448Z,101745.18
2017-10-31T03:28:29.929Z,101744.09
2017-10-31T03:30:57.520Z,101741.46
2017-10-31T03:33:25.007Z,101738.25
2017-10-31T03:35:52.484Z,101746.64
2017-10-31T03:38:20.022Z,101742.70
2017-10-31T03:40:47.502Z,101746.64
2017-10-31T03:43:14.982Z,101741.97
2017-10-31T03:45:42.495Z,101733.48
2017-10-31T03:48:09.967Z,101741.87
2017-10-31T03:50:37.453Z,101736.95
2017-10-31T03:53:04.955Z,101742.69
2017-10-31T03:55:32.439Z,101737.05
2017-10-31T03:57:59.961Z,101746.47
2017-10-31T04:00:27.444Z,101737.50
2017-10-31T04:02:54.919Z,101742.78
2017-10-31T04:05:22.539Z,101739.67
2017-10-31T04:07:50.032Z,101740.67
2017-10-31T04:10:17.508Z,101730.06
2017-10-31T04:12:45.215Z,101724.42
2017-10-31T04:15:12.687Z,101727.53
2017-10-31T04:17:40.191Z,101734.04
2017-10-31T04:20:07.703Z,101732.69
2017-10-31T04:22:35.180Z,101735.06
2017-10-31T04:25:02.664Z,101738.02
2017-10-31T04:27:30.171Z,101738.17
2017-10-31T04:29:57.715Z,101741.47
2017-10-31T04:32:25.201Z,101733.20
2017-10-31T04:34:52.736Z,101738.52
2017-10-31T04:37:20.212Z,101740.22
2017-10-31T04:39:47.699Z,101736.09
2017-10-31T04:42:15.235Z,101732.20
2017-10-31T04:44:42.716Z,101740.79
2017-10-31T04:47:10.196Z,101735.73
2017-10-31T04:49:37.723Z,101736.31
2017-10-31T04:52:05.204Z,101744.38
2017-10-31T04:54:32.689Z,101745.37
2017-10-31T04:57:00.255Z,101739.73
2017-10-31T04:59:27.747Z,101740.25
2017-10-31T05:01:55.224Z,101738.55
2017-10-31T05:04:22.736Z,101737.63
2017-10-31T05:06:50.214Z,101728.36
2017-10-31T05:09:17.746Z,101729.34
2017-10-31T05:11:45.711Z,101730.23
2017-10-31T05:14:13.193Z,101727.73
2017-10-31T05:16:40.719Z,101727.98
2017-10-31T05:19:08.213Z,101727.89
2017-10-31T05:21:35.696Z,101733.42
2017-10-31T05:24:03.200Z,101727.20
2017-10-31T05:26:30.676Z,101726.52
2017-10-31T05:28:58.195Z,101732.74
2017-10-31T05:31:25.676Z,101723.79
2017-10-31T05:33:53.159Z,101729.68
2017-10-31T05:36:20.804Z,101730.09
2017-10-31T05:38:48.286Z,101737.34
2017-10-31T05:41:15.770Z,101738.83
2017-10-31T05:43:43.280Z,101742.41
2017-10-31T05:46:10.763Z,101748.87
2017-10-31T05:48:38.268Z,101743.64
2017-10-31T05:51:05.756Z,101745.08
2017-10-31T05:53:33.245Z,101748.09
2017-10-31T05:56:00.757Z,101755.08
2017-10-31T05:58:28.242Z,101754.62
2017-10-31T06:00:55.729Z,101757.16
2017-10-31T06:03:23.343Z,101757.31
2017-10-31T06:05:50.828Z,101768.39
2017-10-31T06:08:18.313Z,101768.91
2017-10-31T06:10:46.013Z,101772.36
2017-10-31T06:13:13.504Z,101772.78
2017-10-31T06:15:40.991Z,101772.27
2017-10-31T06:18:08.687Z,101779.67
2017-10-31T06:20:36.184Z,101775.77
2017-10-31T06:23:09.367Z,101775.82
2017-10-31T06:25:42.515Z,101783.06
2017-10-31T06:28:15.648Z,101790.69
2017-10-31T06:30:48.924Z,101794.20
2017-10-31T06:33:16.403Z,101800.25
2017-10-31T06:35:43.933Z,101796.50
2017-10-31T06:38:11.447Z,101796.92
2017-10-31T06:40:38.936Z,101799.45
2017-10-31T06:43:06.505Z,101803.39
2017-10-31T06:45:34.041Z,101807.85
2017-10-31T06:48:01.518Z,101798.67
2017-10-31T06:50:29.083Z,101804.98
2017-10-31T06:52:56.643Z,101804.36
2017-10-31T06:55:24.208Z,101807.11
2017-10-31T06:57:51.728Z,101801.53
2017-10-31T07:00:19.221Z,101800.91
2017-10-31T07:02:46.709Z,101803.70
2017-10-31T07:05:14.341Z,101807.91
2017-10-31T07:07:41.906Z,101805.73
2017-10-31T07:10:09.392Z,101806.14
2017-10-31T07:12:36.904Z,101795.60
2017-10-31T07:15:04.476Z,101816.02
2017-10-31T07:17:31.959Z,101807.08
2017-10-31T07:19:59.499Z,101809.99
2017-10-31T07:22:27.015Z,101810.86
2017-10-31T07:24:54.612Z,101814.78
2017-10-31T07:27:22.175Z,101817.75
2017-10-31T07:29:49.823Z,101815.71
2017-10-31T07:32:17.309Z,101819.44
2017-10-31T07:34:44.806Z,101820.17
2017-10-31T07:37:12.329Z,101824.29
2017-10-31T07:39:39.813Z,101822.09
2017-10-31T07:42:07.305Z,101822.35
2017-10-31T07:44:34.884Z,101822.41
2017-10-31T07:47:02.357Z,101825.49
2017-10-31T07:49:29.831Z,101819.31
2017-10-31T07:51:57.343Z,101821.28
2017-10-31T07:54:24.832Z,101820.14
2017-10-31T07:56:52.672Z,101823.23
2017-10-31T07:59:20.154Z,101828.19
2017-10-31T08:01:47.684Z,101831.13
2017-10-31T08:04:15.354Z,101831.30
2017-10-31T08:06:42.844Z,101833.98
2017-10-31T08:09:10.367Z,101836.30
2017-10-31T08:11:37.924Z,101829.12
2017-10-31T08:14:05.405Z,101838.75
2017-10-31T08:16:32.943Z,101832.99
2017-10-31T08:19:00.439Z,101832.95
2017-10-31T08:21:27.920Z,101840.77
2017-10-31T08:23:55.437Z,101837.70
2017-10-31T08:26:22.937Z,101836.64
2017-10-31T08:28:50.420Z,101835.02
2017-10-31T08:31:17.938Z,101840.16
2017-10-31T08:33:45.447Z,101841.58
2017-10-31T08:36:12.960Z,101838.33
2017-10-31T08:38:40.554Z,101835.22
2017-10-31T08:41:08.123Z,101835.30
2017-10-31T08:43:35.687Z,101835.83
2017-10-31T08:46:03.243Z,101835.23
2017-10-31T08:48:30.723Z,101839.39
2017-10-31T08:50:58.208Z,101840.30
2017-10-31T08:53:25.928Z,101834.08
2017-10-31T08:55:53.483Z,101835.14
2017-10-31T08:58:20.968Z,101839.16
2017-10-31T09:00:48.472Z,101848.55
2017-10-31T09:03:15.966Z,101842.77
2017-10-31T09:05:43.515Z,101847.55
2017-10-31T09:08:11.015Z,101846.98
2017-10-31T09:10:38.537Z,101842.19
2017-10-31T09:13:06.087Z,101843.45
2017-10-31T09:15:33.568Z,101841.44
2017-10-31T09:18:01.091Z,101842.75
2017-10-31T09:20:28.668Z,101841.08
2017-10-31T09:22:56.151Z,101834.41
2017-10-31T09:25:23.676Z,101841.99
2017-10-31T09:27:51.157Z,101838.03
2017-10-31T09:30:18.636Z,101836.85
2017-10-31T09:32:46.148Z,101841.52
2017-10-31T09:35:13.633Z,101844.30
2017-10-31T09:37:41.110Z,101836.81
2017-10-31T09:40:08.645Z,101845.05
2017-10-31T09:42:36.139Z,101838.81
2017-10-31T09:45:03.642Z,101836.16
2017-10-31T09:47:31.148Z,101840.18
2017-10-31T09:49:58.685Z,101842.93
2017-10-31T09:52:26.237Z,101841.72
2017-10-31T09:54:53.723Z,101835.72
2017-10-31T09:57:21.222Z,101845.19
2017-10-31T09:59:48.733Z,101836.77
2017-10-31T10:02:16.208Z,101838.84
2017-10-31T10:04:43.686Z,101834.71
2017-10-31T10:07:11.200Z,101830.34
2017-10-31T10:09:38.678Z,101833.58
2017-10-31T10:12:06.189Z,101832.77
2017-10-31T10:14:33.672Z,101837.11
2017-10-31T10:17:01.404Z,101829.75
2017-10-31T10:19:28.959Z,101831.78
2017-10-31T10:21:56.443Z,101829.01
2017-10-31T10:24:23.968Z,101825.73
2017-10-31T10:26:51.454Z,101828.23
2017-10-31T10:29:18.931Z,101829.30
2017-10-31T10:31:46.870Z,101829.97
2017-10-31T10:34:14.374Z,101830.52
2017-10-31T10:36:41.882Z,101831.14
2017-10-31T10:39:09.386Z,101826.13
2017-10-31T10:41:37.224Z,101833.25
2017-10-31T10:44:04.752Z,101818.59
2017-10-31T10:46:32.242Z,101826.73
2017-10-31T10:48:59.715Z,101819.84
2017-10-31T10:51:27.431Z,101823.08
2017-10-31T10:53:55.010Z,101818.84
2017-10-31T10:56:22.488Z,101821.18
2017-10-31T10:58:50.015Z,101817.48
2017-10-31T11:01:17.488Z,101821.33
2017-10-31T11:03:44.967Z,101816.81
2017-10-31T11:06:12.488Z,101818.52
2017-10-31T11:08:40.045Z,101820.94
2017-10-31T11:11:07.617Z,101817.70
2017-10-31T11:13:35.898Z,101818.94
2017-10-31T11:16:03.379Z,101818.94
2017-10-31T11:18:30.856Z,101820.40
2017-10-31T11:20:58.377Z,101830.16
2017-10-31T11:23:25.851Z,101830.67
2017-10-31T11:25:53.366Z,101834.42
2017-10-31T11:28:20.851Z,101828.23
2017-10-31T11:30:48.338Z,101834.70
2017-10-31T11:33:15.939Z,101833.87
2017-10-31T11:35:43.428Z,101836.04
2017-10-31T11:38:10.962Z,101833.48
2017-10-31T11:40:38.476Z,101829.64
2017-10-31T11:43:05.961Z,101831.39
2017-10-31T11:45:33.532Z,101819.41
2017-10-31T11:48:01.055Z,101819.97
2017-10-31T11:50:28.547Z,101821.45
2017-10-31T11:52:56.027Z,101826.65
2017-10-31T11:55:23.678Z,101819.54
2017-10-31T11:57:51.164Z,101813.61
2017-10-31T12:00:18.719Z,101825.22
2017-10-31T12:02:46.231Z,101812.25
2017-10-31T12:05:13.812Z,101816.13
2017-10-31T12:07:41.311Z,101813.73
2017-10-31T12:10:08.848Z,101803.59
2017-10-31T12:12:36.491Z,101816.55
2017-10-31T12:15:03.974Z,101806.53
2017-10-31T12:17:31.509Z,101803.20
2017-10-31T12:19:59.028Z,101808.02
2017-10-31T12:22:26.509Z,101806.11
2017-10-31T12:24:54.183Z,101801.98
2017-10-31T12:27:21.655Z,101805.38
2017-10-31T12:29:49.149Z,101801.11
2017-10-31T12:32:16.961Z,101805.70
2017-10-31T12:34:44.439Z,101801.36
2017-10-31T12:39:38.824Z,101788.36
2017-10-31T12:42:06.298Z,101791.55
2017-10-31T12:44:33.831Z,101790.68
2017-10-31T12:47:01.394Z,101791.52
2017-10-31T12:49:28.876Z,101791.39
2017-10-31T12:51:56.507Z,101785.45
2017-10-31T12:54:24.002Z,101788.20
2017-10-31T12:56:51.480Z,101784.81
2017-10-31T12:59:19.103Z,101791.23
2017-10-31T13:01:46.580Z,101780.94
2017-10-31T13:04:14.051Z,101788.22
2017-10-31T13:06:41.667Z,101780.93
2017-10-31T13:09:09.148Z,101785.10
2017-10-31T13:11:36.628Z,101784.69
2017-10-31T13:14:04.152Z,101786.33
2017-10-31T13:16:31.631Z,101787.52
2017-10-31T13:18:59.113Z,101788.81
2017-10-31T13:21:27.024Z,101794.99
2017-10-31T13:23:54.590Z,101792.58
2017-10-31T13:26:22.575Z,101789.18
2017-10-31T13:28:50.580Z,101789.45
2017-10-31T13:31:18.714Z,101789.17
2017-10-31T13:33:46.750Z,101788.28
2017-10-31T13:36:14.767Z,101787.16
2017-10-31T13:38:42.824Z,101784.75
2017-10-31T13:41:10.844Z,101783.23
2017-10-31T13:43:38.874Z,101778.91
2017-10-31T13:46:06.352Z,101781.82
2017-10-31T13:48:34.336Z,101780.41
2017-10-31T13:51:01.897Z,101780.04
2017-10-31T13:53:29.559Z,101781.46
2017-10-31T13:55:57.155Z,101773.15
2017-10-31T13:58:24.683Z,101778.61
2017-10-31T14:00:52.639Z,101775.73
2017-10-31T14:03:20.603Z,101779.98
2017-10-31T14:05:48.665Z,101785.59
2017-10-31T14:08:16.732Z,101784.94
2017-10-31T14:10:44.272Z,101780.52
2017-10-31T14:13:11.752Z,101782.98
2017-10-31T14:15:39.259Z,101780.16
2017-10-31T14:18:07.553Z,101783.38
2017-10-31T14:20:35.640Z,101775.03
2017-10-31T14:23:03.179Z,101777.09
2017-10-31T14:25:30.678Z,101772.04
2017-10-31T14:27:58.292Z,101772.42
2017-10-31T14:30:25.815Z,101771.48
2017-10-31T14:32:53.292Z,101769.33
2017-10-31T14:35:20.868Z,101771.77
2017-10-31T14:37:48.549Z,101770.40
2017-10-31T14:40:16.088Z,101757.00
2017-10-31T14:42:43.652Z,101764.66
2017-10-31T14:45:11.163Z,101769.70
2017-10-31T14:47:38.669Z,101766.06
2017-10-31T14:50:06.189Z,101765.25
2017-10-31T14:52:33.663Z,101759.95
2017-10-31T14:55:01.243Z,101764.00
2017-10-31T14:57:28.753Z,101766.17
2017-10-31T14:59:56.233Z,101762.48
2017-10-31T15:02:23.717Z,101756.47
2017-10-31T15:04:51.287Z,101759.30
2017-10-31T15:07:18.796Z,101754.82
2017-10-31T15:09:46.275Z,101753.69
2017-10-31T15:12:13.766Z,101748.09
2017-10-31T15:14:41.300Z,101748.44
2017-10-31T15:17:08.784Z,101753.27
2017-10-31T15:19:36.264Z,101747.38
2017-10-31T15:22:03.778Z,101746.31
2017-10-31T15:24:31.257Z,101752.91
2017-10-31T15:26:58.733Z,101745.16
2017-10-31T15:29:26.465Z,101751.59
2017-10-31T15:31:54.015Z,101751.87
2017-10-31T15:34:21.487Z,101747.75
2017-10-31T15:36:49.006Z,101750.12
2017-10-31T15:39:16.490Z,101748.72
2017-10-31T15:41:44.041Z,101745.19
2017-10-31T15:44:11.551Z,101749.58
2017-10-31T15:46:39.057Z,101744.70
2017-10-31T15:49:06.576Z,101749.40
2017-10-31T15:51:34.088Z,101750.05
2017-10-31T15:54:01.632Z,101754.16
2017-10-31T15:56:29.112Z,101752.27
2017-10-31T15:58:56.657Z,101755.07
2017-10-31T16:01:24.259Z,101759.36
2017-10-31T16:03:51.796Z,101765.05
2017-10-31T16:06:19.298Z,101762.84
2017-10-31T16:08:46.783Z,101763.20
2017-10-31T16:11:14.312Z,101767.72
2017-10-31T16:13:41.827Z,101763.80
2017-10-31T16:16:09.300Z,101766.92
2017-10-31T16:18:36.826Z,101770.03
2017-10-31T16:21:04.312Z,101763.80
2017-10-31T16:23:31.794Z,101764.11
2017-10-31T16:25:59.318Z,101763.28
2017-10-31T16:28:26.808Z,101762.58
2017-10-31T16:30:54.412Z,101762.95
2017-10-31T16:33:21.897Z,101758.55
2017-10-31T16:35:49.425Z,101762.52
2017-10-31T16:38:16.990Z,101756.94
2017-10-31T16:40:44.496Z,101752.70
2017-10-31T16:43:11.994Z,101753.31
2017-10-31T16:45:39.778Z,101754.25
2017-10-31T16:48:07.259Z,101751.38
2017-10-31T16:50:34.789Z,101751.24
2017-10-31T16:53:02.324Z,101745.49
2017-10-31T16:55:29.799Z,101753.53
2017-10-31T16:57:57.286Z,101749.08
2017-10-31T17:00:24.819Z,101748.90
2017-10-31T17:02:52.308Z,101754.07
2017-10-31T17:05:19.851Z,101756.26
2017-10-31T17:07:47.395Z,101752.54
2017-10-31T17:10:14.954Z,101752.95
2017-10-31T17:12:42.470Z,101747.55
2017-10-31T17:15:09.943Z,101747.26
2017-10-31T17:17:37.454Z,101758.67
2017-10-31T17:20:04.943Z,101763.23
2017-10-31T17:22:32.420Z,101753.42
2017-10-31T17:24:59.939Z,101755.81
2017-10-31T17:27:27.422Z,101760.99
2017-10-31T17:29:54.899Z,101762.73
2017-10-31T17:32:22.415Z,101762.16
2017-10-31T17:34:49.925Z,101762.50
2017-10-31T17:37:17.470Z,101762.32
2017-10-31T17:39:44.971Z,101766.45
2017-10-31T17:42:12.452Z,101761.05
2017-10-31T17:44:39.984Z,101762.63
2017-10-31T17:47:07.472Z,101757.59
2017-10-31T17:49:34.946Z,101756.95
2017-10-31T17:52:02.563Z,101761.56
2017-10-31T17:54:30.100Z,101757.73
2017-10-31T17:56:57.655Z,101756.20
2017-10-31T17:59:25.220Z,101754.22
2017-10-31T18:01:52.772Z,101753.20
2017-10-31T18:04:20.362Z,101753.73
2017-10-31T18:06:47.916Z,101745.37
2017-10-31T18:09:15.392Z,101739.25
2017-10-31T18:11:42.875Z,101731.64
2017-10-31T18:14:10.495Z,101740.46
2017-10-31T18:16:38.029Z,101723.71
2017-10-31T18:19:05.587Z,101733.36
2017-10-31T18:21:33.110Z,101724.11
2017-10-31T18:24:00.622Z,101719.92
2017-10-31T18:26:28.104Z,101718.05
2017-10-31T18:28:55.759Z,101714.88
2017-10-31T18:31:23.244Z,101718.52
2017-10-31T18:33:50.727Z,101718.86
2017-10-31T18:36:18.235Z,101724.03
2017-10-31T18:38:45.778Z,101722.69
2017-10-31T18:41:13.327Z,101727.03
2017-10-31T18:43:40.903Z,101725.50
2017-10-31T18:46:08.408Z,101720.16
2017-10-31T18:48:35.896Z,101720.87
2017-10-31T18:51:03.420Z,101716.81
2017-10-31T18:53:30.915Z,101712.72
2017-10-31T18:55:58.392Z,101708.25
2017-10-31T18:58:25.917Z,101711.40
2017-10-31T19:00:53.402Z,101711.55
2017-10-31T19:03:20.877Z,101705.06
2017-10-31T19:05:48.500Z,101711.04
2017-10-31T19:08:15.990Z,101708.49
2017-10-31T19:10:43.488Z,101706.98
2017-10-31T19:13:11.037Z,101707.38
2017-10-31T19:15:38.588Z,101709.94
2017-10-31T19:18:06.089Z,101706.90
2017-10-31T19:20:33.645Z,101705.83
2017-10-31T19:23:01.130Z,101702.17
2017-10-31T19:25:28.682Z,101699.98
2017-10-31T19:27:56.248Z,101703.10
2017-10-31T19:30:23.727Z,101692.81
2017-10-31T19:32:51.263Z,101699.36
2017-10-31T19:35:18.749Z,101696.61
2017-10-31T19:37:46.236Z,101689.30
2017-10-31T19:40:13.914Z,101694.06
2017-10-31T19:42:41.476Z,101692.30
2017-10-31T19:45:08.960Z,101690.69
2017-10-31T19:47:36.487Z,101693.88
2017-10-31T19:50:03.973Z,101694.02
2017-10-31T19:52:31.488Z,101698.07
2017-10-31T19:54:59.009Z,101689.66
2017-10-31T19:57:26.499Z,101688.89
2017-10-31T19:59:53.985Z,101687.16
2017-10-31T20:02:21.522Z,101691.16
2017-10-31T20:04:49.009Z,101683.98
2017-10-31T20:07:16.507Z,101685.47
2017-10-31T20:09:44.031Z,101685.73
2017-10-31T20:12:11.518Z,101680.98
2017-10-31T20:14:39.968Z,101680.31
2017-10-31T20:17:07.519Z,101675.02
2017-10-31T20:19:35.074Z,101673.69
2017-10-31T20:22:02.557Z,101678.19
2017-10-31T20:24:30.200Z,101678.05
2017-10-31T20:26:57.744Z,101673.41
2017-10-31T20:29:25.237Z,101680.58
2017-10-31T20:31:52.755Z,101680.81
2017-10-31T20:34:20.238Z,101677.70
2017-10-31T20:36:47.719Z,101673.13
2017-10-31T20:39:15.444Z,101678.34
2017-10-31T20:41:42.942Z,101677.20
2017-10-31T20:44:10.460Z,101674.30
2017-10-31T20:46:38.029Z,101675.55
2017-10-31T20:49:05.516Z,101670.03
2017-10-31T20:51:33.014Z,101674.92
2017-10-31T20:54:00.639Z,101669.44
2017-10-31T20:56:28.049Z,101664.77
2017-10-31T20:58:55.604Z,101659.36
2017-10-31T21:01:23.144Z,101663.52
2017-10-31T21:03:50.623Z,101655.70
2017-10-31T21:06:18.191Z,101654.22
2017-10-31T21:08:45.716Z,101659.38
2017-10-31T21:11:13.227Z,101659.72
2017-10-31T21:13:40.712Z,101658.27
2017-10-31T21:16:08.224Z,101656.39
2017-10-31T21:18:35.714Z,101655.17
2017-10-31T21:21:03.239Z,101649.59
2017-10-31T21:23:30.729Z,101646.78
2017-10-31T21:25:58.297Z,101647.83
2017-10-31T21:28:25.845Z,101642.09
2017-10-31T21:30:53.331Z,101645.30
2017-10-31T21:33:20.828Z,101639.08
2017-10-31T21:35:48.348Z,101634.91
2017-10-31T21:38:15.852Z,101631.82
2017-10-31T21:40:43.340Z,101635.28
2017-10-31T21:43:10.855Z,101628.05
2017-10-31T21:45:38.343Z,101634.27
2017-10-31T21:48:05.845Z,101633.41
2017-10-31T21:50:33.385Z,101628.97
2017-10-31T21:53:00.872Z,101625.95
2017-10-31T21:55:28.359Z,101624.27
2017-10-31T21:57:55.902Z,101628.73
2017-10-31T22:00:23.390Z,101618.76
2017-10-31T22:02:50.871Z,101620.27
2017-10-31T22:05:18.519Z,101618.52
2017-10-31T22:07:46.011Z,101612.30
2017-10-31T22:10:13.496Z,101617.17
2017-10-31T22:12:41.062Z,101609.37
2017-10-31T22:15:08.555Z,101614.39
2017-10-31T22:17:36.076Z,101610.66
2017-10-31T22:20:03.595Z,101606.50
2017-10-31T22:22:31.130Z,101605.80
2017-10-31T22:24:58.652Z,101603.51
2017-10-31T22:27:26.212Z,101602.05
2017-10-31T22:29:53.771Z,101598.83
2017-10-31T22:32:21.304Z,101597.45
2017-10-31T22:34:48.789Z,101593.34
2017-10-31T22:37:16.283Z,101591.78
2017-10-31T22:39:43.851Z,101584.73
2017-10-31T22:42:11.363Z,101577.62
2017-10-31T22:44:38.928Z,101577.73
2017-10-31T22:47:06.452Z,101580.25
2017-10-31T22:49:33.946Z,101571.94
2017-10-31T22:52:01.495Z,101574.34
2017-10-31T22:54:29.019Z,101569.88
2017-10-31T22:56:56.521Z,101564.40
2017-10-31T22:59:24.008Z,101569.47
2017-10-31T23:01:51.523Z,101568.11
2017-10-31T23:04:19.089Z,101564.45
2017-10-31T23:06:46.571Z,101563.21
2017-10-31T23:09:14.078Z,101566.53
2017-10-31T23:11:41.563Z,101565.83
2017-10-31T23:14:09.124Z,101571.16
2017-10-31T23:16:36.619Z,101566.47
2017-10-31T23:19:04.108Z,101561.56
2017-10-31T23:21:31.645Z,101552.94
2017-10-31T23:23:59.131Z,101561.04
2017-10-31T23:26:26.620Z,101549.17
2017-10-31T23:28:54.136Z,101548.13
2017-10-31T23:31:21.628Z,101550.31
2017-10-31T23:33:49.140Z,101544.08
2017-10-31T23:36:16.619Z,101548.39
2017-10-31T23:38:44.137Z,101544.70
2017-10-31T23:41:11.627Z,101537.24
2017-10-31T23:43:39.117Z,101530.91
2017-10-31T23:46:06.680Z,101529.03
2017-10-31T23:48:34.235Z,101527.69
2017-10-31T23:51:01.724Z,101524.17
2017-10-31T23:53:29.239Z,101522.33
2017-10-31T23:55:56.728Z,101512.05
2017-10-31T23:58:24.216Z,101513.12
